Time;durP1;ratioP1;P1;durP2;ratioP2;P2;SDS_P1;SDS_P2;PMS_P1;PMS_P2;Temp;Humidity;BMP_temperature;BMP_pressure;BME280_temperature;BME280_humidity;BME280_pressure;Samples;Min_cycle;Max_cycle;Signal;HPM_P1;HPM_P2
2022/10/10 00:00:49;;;;;;;2.72;1.27;;;8.00;99.90;;;;;;5038475;28;20021;-81
2022/10/10 00:03:16;;;;;;;3.63;1.45;;;7.90;99.90;;;;;;5040738;28;20036;-81
2022/10/10 00:05:42;;;;;;;3.17;1.60;;;7.80;99.90;;;;;;5039602;28;20072;-80
2022/10/10 00:08:08;;;;;;;1.90;1.20;;;7.70;99.90;;;;;;5047669;28;20420;-83
2022/10/10 00:10:34;;;;;;;3.80;1.55;;;7.70;99.90;;;;;;5045502;28;20033;-80
2022/10/10 00:13:01;;;;;;;1.75;1.20;;;7.70;99.90;;;;;;5039757;28;20187;-80
2022/10/10 00:15:26;;;;;;;4.22;1.60;;;7.80;99.90;;;;;;5036837;28;20057;-80
2022/10/10 00:17:52;;;;;;;8.02;1.30;;;7.80;99.90;;;;;;5032254;28;20032;-81
2022/10/10 00:20:19;;;;;;;2.42;1.48;;;7.90;99.90;;;;;;5044196;28;20035;-81
2022/10/10 00:22:44;;;;;;;5.28;1.40;;;7.90;99.90;;;;;;5038798;28;20021;-81
2022/10/10 00:25:10;;;;;;;3.30;1.13;;;7.80;99.90;;;;;;5048067;28;20036;-80
2022/10/10 00:27:36;;;;;;;6.45;1.40;;;7.80;99.90;;;;;;5045569;28;20028;-79
2022/10/10 00:30:04;;;;;;;1.65;1.10;;;7.80;99.90;;;;;;5040758;28;20111;-79
2022/10/10 00:32:29;;;;;;;1.20;1.10;;;7.70;99.90;;;;;;5041606;28;20615;-82
2022/10/10 00:34:55;;;;;;;3.50;1.45;;;7.60;99.90;;;;;;5042136;28;20480;-80
2022/10/10 00:37:21;;;;;;;2.65;1.73;;;7.60;99.90;;;;;;5034856;28;20530;-80
2022/10/10 00:39:46;;;;;;;2.85;1.30;;;7.50;99.90;;;;;;5043536;28;20030;-80
2022/10/10 00:42:13;;;;;;;2.72;1.33;;;7.50;99.90;;;;;;5036328;28;20025;-80
2022/10/10 00:44:40;;;;;;;5.03;1.40;;;7.50;99.90;;;;;;5029919;28;20039;-80
2022/10/10 00:47:06;;;;;;;5.70;1.23;;;7.50;99.90;;;;;;5042202;28;20040;-80
2022/10/10 00:49:43;;;;;;;6.30;1.85;;;7.60;99.90;;;;;;5040888;28;20025;-80
2022/10/10 00:52:10;;;;;;;3.25;1.30;;;7.60;99.90;;;;;;5042052;28;20028;-80
2022/10/10 00:54:37;;;;;;;2.78;1.38;;;7.50;99.90;;;;;;5036234;28;20033;-79
2022/10/10 00:57:06;;;;;;;2.35;1.10;;;7.40;99.90;;;;;;5040091;28;20029;-80
2022/10/10 00:59:35;;;;;;;3.78;1.60;;;7.40;99.90;;;;;;5046050;28;20033;-80
2022/10/10 01:02:01;;;;;;;3.10;1.50;;;7.50;99.90;;;;;;5048019;28;20029;-80
2022/10/10 01:04:34;;;;;;;3.47;1.50;;;7.60;99.90;;;;;;5045856;28;20506;-79
2022/10/10 01:07:03;;;;;;;2.28;1.42;;;7.50;99.90;;;;;;5045514;28;20103;-79
2022/10/10 01:09:30;;;;;;;2.45;1.48;;;7.40;99.90;;;;;;5042762;28;20048;-79
2022/10/10 01:12:22;;;;;;;4.53;1.38;;;7.40;99.90;;;;;;5049824;28;20024;-80
2022/10/10 01:15:03;;;;;;;2.10;1.38;;;7.30;99.90;;;;;;5050197;28;20048;-79
2022/10/10 01:17:57;;;;;;;4.00;1.33;;;7.30;99.90;;;;;;5045931;28;20260;-80
2022/10/10 01:20:39;;;;;;;3.10;1.55;;;7.20;99.90;;;;;;5007260;28;20034;-80
2022/10/10 01:23:43;;;;;;;3.95;1.20;;;7.10;99.90;;;;;;5050170;28;20025;-79
2022/10/10 01:26:42;;;;;;;2.28;1.35;;;7.10;99.90;;;;;;5045826;28;20625;-81
2022/10/10 01:29:28;;;;;;;2.10;1.25;;;7.10;99.90;;;;;;5034430;28;20029;-80
2022/10/10 01:31:59;;;;;;;2.55;1.38;;;7.10;99.90;;;;;;5035089;28;20061;-80
2022/10/10 01:34:48;;;;;;;4.28;1.50;;;7.20;99.90;;;;;;5048523;28;20025;-81
2022/10/10 01:37:18;;;;;;;3.17;1.60;;;7.20;99.90;;;;;;5043853;28;20040;-80
2022/10/10 01:39:57;;;;;;;1.70;1.30;;;7.20;99.90;;;;;;5036856;28;20028;-81
2022/10/10 01:42:40;;;;;;;1.83;1.10;;;7.10;99.90;;;;;;5045205;28;20086;-81
2022/10/10 01:45:06;;;;;;;2.72;1.65;;;7.10;99.90;;;;;;5044052;28;20034;-79
2022/10/10 01:47:32;;;;;;;4.18;1.40;;;7.00;99.90;;;;;;5040995;28;20064;-80
2022/10/10 01:50:03;;;;;;;2.67;1.65;;;7.10;99.90;;;;;;5042549;28;20049;-80
2022/10/10 01:52:34;;;;;;;2.97;1.35;;;7.00;99.90;;;;;;5036727;28;20032;-79
2022/10/10 01:55:15;;;;;;;2.15;1.30;;;7.10;99.90;;;;;;5040607;28;20115;-79
2022/10/10 01:57:55;;;;;;;5.25;1.52;;;7.00;99.90;;;;;;5038882;28;20508;-78
2022/10/10 02:00:20;;;;;;;2.05;1.27;;;6.90;99.90;;;;;;5028407;28;20045;-79
2022/10/10 02:02:54;;;;;;;2.63;1.58;;;6.90;99.90;;;;;;5045301;28;20110;-79
2022/10/10 02:05:37;;;;;;;9.40;1.90;;;7.00;99.90;;;;;;5050027;28;20063;-79
2022/10/10 02:08:13;;;;;;;2.75;1.80;;;7.10;99.90;;;;;;5044731;28;20029;-79
2022/10/10 02:10:52;;;;;;;2.55;1.30;;;7.00;99.90;;;;;;5047919;28;20029;-80
2022/10/10 02:13:20;;;;;;;3.38;2.00;;;7.00;99.90;;;;;;5039702;28;20030;-80
2022/10/10 02:15:52;;;;;;;6.18;1.75;;;7.00;99.90;;;;;;5037106;28;20024;-79
2022/10/10 02:18:21;;;;;;;4.00;1.40;;;7.00;99.90;;;;;;5039375;28;20491;-79
2022/10/10 02:20:49;;;;;;;2.42;1.38;;;7.00;99.90;;;;;;5039716;28;20044;-79
2022/10/10 02:23:18;;;;;;;2.35;1.40;;;7.00;99.90;;;;;;5034493;28;20040;-79
2022/10/10 02:25:49;;;;;;;1.58;1.15;;;6.90;99.90;;;;;;5048441;28;20043;-79
2022/10/10 02:28:28;;;;;;;;;;;6.80;99.90;;;;;;5033272;28;20033;-80
2022/10/10 02:30:58;;;;;;;3.08;1.40;;;6.60;99.90;;;;;;5044018;28;19993;-79
2022/10/10 02:33:32;;;;;;;1.88;1.50;;;6.60;99.90;;;;;;5041403;28;20025;-79
2022/10/10 02:36:00;;;;;;;3.28;1.60;;;6.50;99.90;;;;;;5049081;28;20033;-79
2022/10/10 02:38:29;;;;;;;3.30;1.40;;;6.50;99.90;;;;;;5042928;28;20108;-80
2022/10/10 02:40:57;;;;;;;5.22;1.40;;;6.50;99.90;;;;;;5048265;28;20036;-80
2022/10/10 02:43:23;;;;;;;3.97;1.75;;;6.40;99.90;;;;;;5043193;28;20036;-79
2022/10/10 02:45:49;;;;;;;2.80;1.52;;;6.40;99.90;;;;;;5033025;28;20116;-79
2022/10/10 02:48:14;;;;;;;4.40;1.58;;;6.40;99.90;;;;;;5046061;28;20155;-79
2022/10/10 02:50:40;;;;;;;5.18;1.60;;;6.40;99.90;;;;;;5044072;28;20055;-79
2022/10/10 02:53:05;;;;;;;3.90;2.00;;;6.30;99.90;;;;;;5046358;28;20028;-79
2022/10/10 02:55:30;;;;;;;1.92;1.33;;;6.20;99.90;;;;;;5040811;28;20029;-79
2022/10/10 02:57:56;;;;;;;2.83;1.27;;;6.10;99.90;;;;;;5039536;28;20535;-79
2022/10/10 03:00:21;;;;;;;5.28;1.38;;;6.10;99.90;;;;;;5042859;28;20046;-80
2022/10/10 03:02:47;;;;;;;2.63;1.70;;;6.10;99.90;;;;;;5045591;28;20033;-79
2022/10/10 03:05:12;;;;;;;3.03;1.23;;;6.20;99.90;;;;;;5042093;28;20079;-80
2022/10/10 03:07:38;;;;;;;3.42;1.35;;;6.20;99.90;;;;;;5043777;28;20029;-80
2022/10/10 03:10:06;;;;;;;2.35;1.48;;;6.10;99.90;;;;;;5040261;28;20029;-79
2022/10/10 03:12:32;;;;;;;3.20;1.50;;;6.10;99.90;;;;;;5044003;28;20070;-79
2022/10/10 03:14:57;;;;;;;3.85;1.60;;;6.00;99.90;;;;;;5045380;28;20514;-79
2022/10/10 03:17:23;;;;;;;3.35;1.40;;;6.00;99.90;;;;;;5043766;28;20048;-81
2022/10/10 03:19:48;;;;;;;3.35;1.63;;;6.00;99.90;;;;;;5046003;28;20032;-80
2022/10/10 03:22:14;;;;;;;4.57;1.50;;;5.90;99.90;;;;;;5038882;28;20392;-81
2022/10/10 03:24:39;;;;;;;2.38;1.33;;;5.90;99.90;;;;;;5031492;28;20037;-81
2022/10/10 03:27:05;;;;;;;5.57;1.75;;;5.90;99.90;;;;;;5044880;28;20503;-81
2022/10/10 03:29:30;;;;;;;4.57;1.30;;;5.90;99.90;;;;;;5043693;28;20116;-80
2022/10/10 03:31:56;;;;;;;3.00;1.58;;;6.00;99.90;;;;;;5044391;28;20060;-81
2022/10/10 03:34:21;;;;;;;2.42;1.40;;;5.90;99.90;;;;;;5047974;28;20091;-81
2022/10/10 03:36:47;;;;;;;3.60;1.83;;;5.70;99.90;;;;;;5037659;28;20384;-81
2022/10/10 03:39:12;;;;;;;3.38;1.67;;;5.80;99.90;;;;;;5039181;28;20052;-81
2022/10/10 03:41:37;;;;;;;4.65;1.67;;;5.80;99.90;;;;;;5058951;28;20025;-81
2022/10/10 03:44:03;;;;;;;3.72;1.27;;;5.70;99.90;;;;;;5037511;28;20119;-80
2022/10/10 03:46:28;;;;;;;3.50;1.67;;;5.70;99.90;;;;;;5045956;28;20025;-81
2022/10/10 03:48:54;;;;;;;1.90;1.55;;;5.70;99.90;;;;;;5042385;28;20024;-81
2022/10/10 03:51:19;;;;;;;2.63;1.17;;;5.60;99.90;;;;;;5039293;28;20406;-80
2022/10/10 03:53:45;;;;;;;2.92;1.48;;;5.60;99.90;;;;;;5046969;28;20104;-80
2022/10/10 03:56:10;;;;;;;3.30;1.15;;;5.50;99.90;;;;;;5041517;28;20464;-83
2022/10/10 03:58:36;;;;;;;3.25;1.63;;;5.50;99.90;;;;;;5040605;28;20399;-81
2022/10/10 04:01:02;;;;;;;2.72;1.50;;;5.50;99.90;;;;;;5035421;28;20030;-80
2022/10/10 04:03:28;;;;;;;3.28;1.98;;;5.60;99.90;;;;;;5036361;28;20024;-80
2022/10/10 04:05:54;;;;;;;3.83;1.60;;;5.50;99.90;;;;;;5045602;28;20515;-80
2022/10/10 04:08:19;;;;;;;2.88;1.60;;;5.50;99.90;;;;;;5045739;28;20025;-81
2022/10/10 04:10:52;;;;;;;4.40;1.60;;;5.40;99.90;;;;;;5039216;28;20576;-80
2022/10/10 04:13:18;;;;;;;3.13;1.73;;;5.40;99.90;;;;;;5042722;28;20108;-81
2022/10/10 04:15:44;;;;;;;2.40;1.40;;;5.40;99.90;;;;;;5033533;28;20039;-80
2022/10/10 04:18:10;;;;;;;3.70;1.98;;;5.30;99.90;;;;;;5042108;28;20033;-80
2022/10/10 04:20:35;;;;;;;2.00;1.10;;;5.30;99.90;;;;;;5040571;28;20029;-80
2022/10/10 04:23:01;;;;;;;6.63;1.63;;;5.40;99.90;;;;;;5043445;28;20492;-80
2022/10/10 04:25:26;;;;;;;4.13;1.63;;;5.40;99.90;;;;;;5040112;28;20376;-80
2022/10/10 04:27:52;;;;;;;3.53;1.60;;;5.50;99.90;;;;;;5038269;28;20032;-81
2022/10/10 04:30:18;;;;;;;3.67;1.90;;;5.60;99.90;;;;;;5043850;28;20464;-80
2022/10/10 04:32:43;;;;;;;3.78;1.80;;;5.70;99.90;;;;;;5033128;28;20070;-79
2022/10/10 04:35:09;;;;;;;4.93;2.08;;;5.70;99.90;;;;;;5044806;28;20033;-80
2022/10/10 04:37:35;;;;;;;5.00;1.77;;;5.60;99.90;;;;;;5045032;28;20025;-80
2022/10/10 04:40:00;;;;;;;2.67;1.40;;;5.60;99.90;;;;;;5042932;28;20045;-79
2022/10/10 04:42:26;;;;;;;2.63;1.60;;;5.60;99.90;;;;;;5044358;28;20549;-80
2022/10/10 04:44:51;;;;;;;3.35;1.55;;;5.50;99.90;;;;;;5045800;28;20025;-79
2022/10/10 04:47:17;;;;;;;3.85;1.73;;;5.40;99.90;;;;;;5046873;28;20025;-79
2022/10/10 04:49:42;;;;;;;4.70;1.33;;;5.40;99.90;;;;;;5046121;28;20120;-79
2022/10/10 04:52:09;;;;;;;2.67;1.60;;;5.50;99.90;;;;;;5028071;28;20208;-78
2022/10/10 04:54:34;;;;;;;4.00;1.70;;;5.50;99.90;;;;;;5042381;28;20029;-79
2022/10/10 04:57:00;;;;;;;6.60;1.75;;;5.40;99.90;;;;;;5040665;28;20033;-79
2022/10/10 04:59:25;;;;;;;2.95;1.80;;;5.40;99.90;;;;;;5038233;28;20025;-79
2022/10/10 05:01:51;;;;;;;4.97;1.38;;;5.40;99.90;;;;;;5045423;28;20033;-79
2022/10/10 05:04:16;;;;;;;3.42;1.90;;;5.30;99.90;;;;;;5039795;28;20116;-77
2022/10/10 05:06:45;;;;;;;4.43;1.70;;;5.30;99.90;;;;;;5033825;28;20021;-78
2022/10/10 05:09:10;;;;;;;3.13;1.75;;;5.40;99.90;;;;;;5037931;28;20021;-80
2022/10/10 05:11:36;;;;;;;3.88;2.10;;;5.30;99.90;;;;;;5037157;28;20021;-76
2022/10/10 05:14:02;;;;;;;2.83;2.03;;;5.30;99.90;;;;;;5039002;28;20033;-77
2022/10/10 05:16:28;;;;;;;4.90;2.20;;;5.40;99.90;;;;;;5040823;28;20464;-80
2022/10/10 05:18:53;;;;;;;8.98;1.85;;;5.40;99.90;;;;;;5038646;28;20120;-78
2022/10/10 05:21:22;;;;;;;3.33;1.85;;;5.50;99.90;;;;;;5039852;28;20028;-76
2022/10/10 05:23:48;;;;;;;8.73;2.08;;;5.60;99.90;;;;;;5036133;28;20112;-77
2022/10/10 05:26:13;;;;;;;5.07;1.92;;;5.60;99.90;;;;;;5036221;28;20737;-77
2022/10/10 05:28:38;;;;;;;7.53;2.20;;;5.50;99.90;;;;;;5038803;28;20040;-77
2022/10/10 05:31:04;;;;;;;4.75;2.33;;;5.60;99.90;;;;;;5043674;28;20132;-75
2022/10/10 05:33:30;;;;;;;6.80;2.35;;;5.50;99.90;;;;;;5044405;28;20515;-79
2022/10/10 05:36:09;;;;;;;4.70;1.95;;;5.50;99.90;;;;;;5045831;28;20095;-83
2022/10/10 05:38:35;;;;;;;3.58;1.88;;;5.50;99.90;;;;;;5041119;28;20029;-80
2022/10/10 05:41:00;;;;;;;8.10;2.08;;;5.50;99.90;;;;;;5046634;28;20029;-78
2022/10/10 05:43:29;;;;;;;3.30;1.90;;;5.60;99.90;;;;;;5038601;28;20037;-82
2022/10/10 05:45:55;;;;;;;3.65;1.90;;;5.60;99.90;;;;;;5038925;28;20166;-79
2022/10/10 05:48:21;;;;;;;3.55;1.92;;;5.70;99.90;;;;;;5047655;28;20681;-82
2022/10/10 05:50:53;;;;;;;3.72;2.08;;;5.70;99.90;;;;;;5045068;28;20017;-86
2022/10/10 05:53:21;;;;;;;3.78;2.10;;;5.80;99.90;;;;;;5039670;28;20766;-80
2022/10/10 05:55:46;;;;;;;2.97;1.90;;;5.90;99.90;;;;;;5037773;28;20057;-75
2022/10/10 05:58:12;;;;;;;3.83;2.50;;;6.00;99.90;;;;;;5043342;28;20057;-77
2022/10/10 06:00:39;;;;;;;5.13;1.85;;;5.90;99.90;;;;;;5034645;28;20033;-75
2022/10/10 06:03:05;;;;;;;5.57;2.40;;;5.90;99.90;;;;;;5031463;28;20390;-77
2022/10/10 06:05:31;;;;;;;6.28;1.77;;;6.00;99.90;;;;;;5037371;28;20491;-78
2022/10/10 06:07:57;;;;;;;6.30;2.00;;;6.00;99.90;;;;;;5042949;28;20029;-77
2022/10/10 06:10:22;;;;;;;4.85;2.28;;;6.10;99.90;;;;;;5046522;28;20039;-79
2022/10/10 06:12:50;;;;;;;2.80;1.92;;;6.30;99.90;;;;;;5042602;28;20024;-77
2022/10/10 06:15:16;;;;;;;3.10;2.30;;;6.20;99.90;;;;;;5044257;28;20032;-76
2022/10/10 06:17:42;;;;;;;2.35;1.52;;;6.20;99.90;;;;;;5043352;28;20029;-76
2022/10/10 06:20:07;;;;;;;5.53;2.38;;;6.20;99.90;;;;;;5042883;28;20048;-76
2022/10/10 06:22:33;;;;;;;4.32;1.77;;;6.30;99.90;;;;;;5035848;28;20036;-76
2022/10/10 06:24:58;;;;;;;2.17;1.52;;;6.40;99.90;;;;;;5045308;28;20109;-77
2022/10/10 06:27:24;;;;;;;4.70;1.98;;;6.50;99.90;;;;;;5044188;28;20483;-78
2022/10/10 06:29:49;;;;;;;3.42;2.03;;;6.50;99.90;;;;;;5042167;28;20391;-78
2022/10/10 06:32:15;;;;;;;6.15;1.80;;;6.50;99.90;;;;;;5039750;28;20044;-77
2022/10/10 06:34:40;;;;;;;4.47;1.85;;;6.60;99.90;;;;;;5042891;28;20041;-76
2022/10/10 06:37:11;;;;;;;5.20;2.10;;;6.60;99.90;;;;;;5040857;28;20048;-78
2022/10/10 06:39:36;;;;;;;7.47;2.20;;;6.60;99.90;;;;;;5048308;28;20684;-78
2022/10/10 06:42:02;;;;;;;4.13;2.25;;;6.60;99.90;;;;;;5053693;28;20040;-75
2022/10/10 06:44:27;;;;;;;6.95;2.13;;;6.60;99.90;;;;;;5045855;28;20168;-77
2022/10/10 06:46:53;;;;;;;5.93;2.42;;;6.70;99.90;;;;;;5042300;28;20018;-77
2022/10/10 06:49:18;;;;;;;3.83;2.00;;;6.70;99.90;;;;;;5036243;28;20040;-77
2022/10/10 06:51:44;;;;;;;8.23;2.40;;;6.80;99.90;;;;;;5047538;28;20033;-90
2022/10/10 06:54:10;;;;;;;4.35;2.38;;;6.80;99.90;;;;;;5041844;28;20558;-80
2022/10/10 06:56:36;;;;;;;6.28;2.13;;;6.90;99.90;;;;;;5046748;28;20056;-88
2022/10/10 06:59:02;;;;;;;4.93;1.85;;;7.00;99.90;;;;;;5043519;28;20068;-89
2022/10/10 07:01:28;;;;;;;4.80;2.47;;;7.10;99.90;;;;;;5046255;28;20100;-85
2022/10/10 07:03:53;;;;;;;3.88;2.15;;;7.20;99.90;;;;;;5048268;28;20041;-84
2022/10/10 07:06:19;;;;;;;5.85;2.28;;;7.20;99.90;;;;;;5047634;28;20036;-83
2022/10/10 07:08:45;;;;;;;3.55;1.75;;;7.30;99.90;;;;;;5046713;28;20029;-87
2022/10/10 07:11:10;;;;;;;6.72;2.10;;;7.50;99.90;;;;;;5040973;28;20484;-87
2022/10/10 07:13:36;;;;;;;7.60;2.47;;;7.60;99.90;;;;;;5033956;28;20047;-88
2022/10/10 07:16:03;;;;;;;9.23;2.40;;;7.70;99.90;;;;;;5038443;28;20158;-88
2022/10/10 07:18:30;;;;;;;5.03;2.17;;;7.90;99.90;;;;;;5035232;28;20025;-87
2022/10/10 07:20:57;;;;;;;3.20;1.90;;;8.00;99.90;;;;;;5044157;28;20029;-88
2022/10/10 07:23:22;;;;;;;2.58;1.80;;;8.00;99.90;;;;;;5033866;28;20021;-89
2022/10/10 07:25:48;;;;;;;12.25;1.88;;;8.20;99.90;;;;;;5037152;28;20035;-86
2022/10/10 07:28:13;;;;;;;6.07;2.08;;;8.30;99.90;;;;;;5043898;28;20521;-81
2022/10/10 07:30:42;;;;;;;4.35;2.38;;;8.40;99.90;;;;;;5046787;28;20033;-81
2022/10/10 07:33:07;;;;;;;3.08;1.83;;;8.50;99.90;;;;;;5041297;28;20104;-80
2022/10/10 07:35:33;;;;;;;3.28;2.05;;;8.50;99.90;;;;;;5046159;28;20120;-81
2022/10/10 07:37:58;;;;;;;3.72;2.13;;;8.60;99.90;;;;;;5039764;28;20036;-81
2022/10/10 07:40:24;;;;;;;5.30;2.17;;;8.60;99.90;;;;;;5046444;28;20118;-80
2022/10/10 07:42:49;;;;;;;9.13;2.28;;;8.70;99.90;;;;;;5041899;28;20041;-83
2022/10/10 07:45:15;;;;;;;3.58;2.03;;;8.80;99.90;;;;;;5046512;28;20116;-82
2022/10/10 07:47:41;;;;;;;2.88;1.52;;;8.90;99.90;;;;;;5041414;28;20039;-81
2022/10/10 07:50:07;;;;;;;7.25;2.50;;;9.00;99.90;;;;;;5045410;28;21592;-85
2022/10/10 07:52:34;;;;;;;2.25;1.58;;;9.20;99.90;;;;;;5039290;28;20025;-80
2022/10/10 07:54:59;;;;;;;4.85;2.28;;;9.20;99.90;;;;;;5038939;28;20043;-80
2022/10/10 07:57:25;;;;;;;3.25;1.80;;;9.30;99.90;;;;;;5039504;28;20037;-82
2022/10/10 07:59:51;;;;;;;2.53;1.80;;;9.30;99.90;;;;;;5044314;28;20033;-89
2022/10/10 08:02:16;;;;;;;4.13;2.08;;;9.40;99.90;;;;;;5040443;28;20022;-87
2022/10/10 08:04:41;;;;;;;3.47;1.63;;;9.30;99.90;;;;;;5041926;28;20064;-79
2022/10/10 08:07:07;;;;;;;7.53;1.90;;;9.30;99.90;;;;;;5044762;28;20036;-79
2022/10/10 08:09:33;;;;;;;4.40;1.83;;;9.30;99.90;;;;;;5044293;28;20010;-78
2022/10/10 08:11:58;;;;;;;3.30;2.00;;;9.40;99.90;;;;;;5039607;28;20029;-78
2022/10/10 08:14:24;;;;;;;3.70;1.77;;;9.40;99.90;;;;;;5036682;28;20043;-79
2022/10/10 08:16:49;;;;;;;3.92;2.05;;;9.50;99.90;;;;;;5044368;28;20033;-79
2022/10/10 08:19:14;;;;;;;3.15;1.70;;;9.60;99.90;;;;;;5034168;28;20060;-77
2022/10/10 08:21:40;;;;;;;3.75;1.75;;;9.60;99.90;;;;;;5039017;28;20080;-78
2022/10/10 08:24:06;;;;;;;4.22;1.70;;;9.50;99.90;;;;;;5046581;28;20598;-79
2022/10/10 08:26:31;;;;;;;4.78;2.17;;;9.50;99.90;;;;;;5041917;28;20021;-75
2022/10/10 08:28:57;;;;;;;3.05;1.73;;;9.50;99.90;;;;;;5031329;28;20040;-75
2022/10/10 08:31:22;;;;;;;2.55;1.60;;;9.80;99.90;;;;;;5032340;28;20148;-75
2022/10/10 08:33:49;;;;;;;5.50;1.77;;;10.10;99.90;;;;;;5031855;28;20039;-75
2022/10/10 08:36:18;;;;;;;4.97;1.98;;;10.30;99.90;;;;;;5029715;28;20032;-75
2022/10/10 08:38:44;;;;;;;4.13;2.40;;;10.50;99.90;;;;;;5031464;28;20544;-75
2022/10/10 08:41:48;;;;;;;2.88;1.90;;;10.70;99.90;;;;;;5047815;28;20039;-75
2022/10/10 08:44:25;;;;;;;1.75;1.45;;;10.90;99.90;;;;;;5029238;28;20037;-75
2022/10/10 08:47:09;;;;;;;2.63;1.85;;;11.10;99.90;;;;;;5045658;28;20155;-75
2022/10/10 08:49:41;;;;;;;5.72;1.70;;;11.30;99.90;;;;;;5036436;28;20025;-75
2022/10/10 08:52:13;;;;;;;;;;;11.50;99.90;;;;;;5042215;28;20029;-75
2022/10/10 08:54:41;;;;;;;3.97;2.13;;;11.70;99.90;;;;;;5047626;28;20284;-75
2022/10/10 08:57:28;;;;;;;2.78;1.70;;;11.70;99.90;;;;;;5045483;28;20029;-76
2022/10/10 09:00:03;;;;;;;4.05;2.22;;;11.80;99.90;;;;;;5045974;28;20122;-76
2022/10/10 09:02:37;;;;;;;2.70;1.40;;;11.90;99.90;;;;;;5045013;28;20399;-75
2022/10/10 09:05:03;;;;;;;4.65;1.83;;;12.00;99.90;;;;;;5050935;28;20032;-76
2022/10/10 09:07:58;;;;;;;6.20;2.00;;;12.00;99.90;;;;;;5050540;28;20028;-76
2022/10/10 09:10:39;;;;;;;7.78;2.58;;;12.10;99.90;;;;;;5050998;28;20025;-75
2022/10/10 09:13:24;;;;;;;2.95;1.92;;;12.30;99.90;;;;;;5049752;28;20037;-76
2022/10/10 09:16:02;;;;;;;4.30;1.98;;;12.50;99.90;;;;;;5050077;28;20045;-76
2022/10/10 09:18:42;;;;;;;5.60;2.20;;;12.70;99.90;;;;;;5043586;28;20021;-76
2022/10/10 09:21:16;;;;;;;3.67;2.00;;;13.10;99.90;;;;;;5050547;28;20029;-76
2022/10/10 09:24:05;;;;;;;5.10;1.90;;;13.50;97.90;;;;;;5048567;28;20094;-76
2022/10/10 09:26:38;;;;;;;2.92;1.83;;;14.00;95.50;;;;;;5049740;28;20036;-76
2022/10/10 09:29:22;;;;;;;3.33;1.85;;;14.20;93.80;;;;;;5048348;28;20033;-76
2022/10/10 09:31:54;;;;;;;4.05;2.20;;;14.30;93.30;;;;;;5050474;28;20059;-76
2022/10/10 09:34:41;;;;;;;4.85;1.85;;;14.40;92.60;;;;;;5037084;28;20041;-75
2022/10/10 09:37:17;;;;;;;2.33;1.83;;;14.90;93.60;;;;;;5031011;28;20025;-75
2022/10/10 09:39:49;;;;;;;2.72;1.73;;;15.40;91.00;;;;;;5047880;28;20055;-76
2022/10/10 09:42:19;;;;;;;2.38;1.80;;;15.60;88.90;;;;;;5047795;28;20036;-77
2022/10/10 09:44:45;;;;;;;4.47;1.60;;;15.80;87.70;;;;;;5049895;28;20031;-76
2022/10/10 09:47:15;;;;;;;2.25;1.48;;;16.30;86.00;;;;;;5049621;28;20104;-76
2022/10/10 09:49:43;;;;;;;1.73;1.38;;;16.60;83.90;;;;;;5045078;28;20028;-76
2022/10/10 09:52:20;;;;;;;2.58;1.70;;;16.60;81.20;;;;;;5048896;28;20029;-76
2022/10/10 09:54:48;;;;;;;4.95;1.83;;;16.60;81.20;;;;;;5050157;28;20445;-77
2022/10/10 09:57:17;;;;;;;3.10;2.08;;;16.10;80.80;;;;;;5048282;28;20104;-76
2022/10/10 09:59:45;;;;;;;3.08;1.80;;;16.20;83.70;;;;;;5049864;28;20662;-76
2022/10/10 10:02:24;;;;;;;5.75;1.67;;;16.60;80.60;;;;;;5049235;28;20442;-77
2022/10/10 10:04:51;;;;;;;3.28;1.85;;;16.80;79.20;;;;;;5049571;28;20040;-76
2022/10/10 10:07:18;;;;;;;3.75;1.70;;;17.10;78.70;;;;;;5045967;28;20482;-76
2022/10/10 10:09:52;;;;;;;5.88;1.88;;;16.70;78.80;;;;;;5047086;28;20029;-76
2022/10/10 10:12:23;;;;;;;4.95;1.98;;;16.90;81.30;;;;;;5048987;28;20484;-76
2022/10/10 10:14:51;;;;;;;3.15;2.00;;;16.50;80.20;;;;;;5049472;28;20037;-76
2022/10/10 10:17:21;;;;;;;4.25;1.80;;;16.20;80.90;;;;;;5050149;28;20032;-76
2022/10/10 10:19:46;;;;;;;2.30;1.60;;;16.00;81.60;;;;;;5047787;28;20052;-76
2022/10/10 10:22:31;;;;;;;3.00;1.98;;;16.00;82.40;;;;;;5047899;28;20130;-76
2022/10/10 10:24:58;;;;;;;2.67;1.70;;;15.90;82.00;;;;;;5047291;28;20035;-76
2022/10/10 10:27:27;;;;;;;3.30;1.80;;;15.90;81.50;;;;;;5047236;28;20025;-76
2022/10/10 10:29:55;;;;;;;2.53;1.67;;;16.10;82.40;;;;;;5049038;28;20075;-76
2022/10/10 10:32:38;;;;;;;4.60;1.75;;;16.50;81.40;;;;;;5047866;28;20404;-76
2022/10/10 10:35:27;;;;;;;2.67;1.63;;;16.10;82.00;;;;;;5049669;28;20033;-76
2022/10/10 10:38:08;;;;;;;2.25;1.55;;;16.00;82.60;;;;;;5048209;28;20777;-76
2022/10/10 10:40:56;;;;;;;3.88;2.00;;;16.40;83.40;;;;;;5048084;28;20729;-76
2022/10/10 10:43:42;;;;;;;2.75;1.35;;;17.10;79.90;;;;;;5046985;28;20397;-76
2022/10/10 10:46:30;;;;;;;2.00;1.58;;;17.90;78.70;;;;;;5049098;28;20021;-76
2022/10/10 10:49:13;;;;;;;3.75;1.48;;;18.60;74.30;;;;;;5046897;28;20033;-76
2022/10/10 10:51:55;;;;;;;3.28;1.83;;;19.40;70.30;;;;;;5049349;28;20342;-76
2022/10/10 10:54:41;;;;;;;3.65;1.50;;;20.60;68.20;;;;;;5044713;28;20026;-76
2022/10/10 10:57:44;;;;;;;9.02;2.20;;;22.90;59.70;;;;;;5047598;28;20446;-76
2022/10/10 11:00:18;;;;;;;2.92;1.88;;;25.00;54.20;;;;;;5048342;28;20126;-76
2022/10/10 11:03:15;;;;;;;1.77;1.60;;;26.10;48.60;;;;;;5048812;28;20163;-76
2022/10/10 11:05:46;;;;;;;3.05;1.77;;;26.40;46.20;;;;;;5046718;28;20025;-76
2022/10/10 11:08:34;;;;;;;2.15;1.50;;;28.00;45.00;;;;;;5048578;28;20479;-75
2022/10/10 11:11:30;;;;;;;3.08;1.80;;;29.10;42.50;;;;;;5046895;28;20124;-76
2022/10/10 11:14:23;;;;;;;2.42;1.77;;;29.00;41.10;;;;;;5048367;28;20028;-76
2022/10/10 11:16:54;;;;;;;2.67;1.50;;;29.10;40.00;;;;;;5048061;28;20029;-76
2022/10/10 11:19:41;;;;;;;3.38;1.65;;;28.70;40.80;;;;;;5046917;28;20033;-76
2022/10/10 11:22:18;;;;;;;3.28;1.90;;;29.50;40.50;;;;;;5047651;28;20044;-76
2022/10/10 11:24:57;;;;;;;1.92;1.50;;;30.70;38.30;;;;;;5047532;28;20062;-76
2022/10/10 11:27:29;;;;;;;2.33;1.50;;;28.40;40.10;;;;;;5048763;28;20021;-76
2022/10/10 11:30:13;;;;;;;3.33;1.88;;;30.10;40.00;;;;;;5043371;28;20039;-76
2022/10/10 11:33:05;;;;;;;1.95;1.50;;;31.10;37.70;;;;;;5048018;28;20037;-76
2022/10/10 11:35:51;;;;;;;2.03;1.55;;;30.00;38.00;;;;;;5048185;28;20036;-76
2022/10/10 11:38:47;;;;;;;1.83;1.60;;;28.60;39.50;;;;;;5038398;28;20036;-76
2022/10/10 11:41:16;;;;;;;2.35;1.77;;;29.20;39.70;;;;;;5052893;28;20060;-77
2022/10/10 11:43:47;;;;;;;2.85;1.50;;;29.30;39.00;;;;;;5027885;28;20484;-76
2022/10/10 11:46:24;;;;;;;3.90;1.90;;;30.90;37.90;;;;;;5032690;28;20033;-76
2022/10/10 11:49:04;;;;;;;3.95;1.90;;;31.30;37.30;;;;;;5033772;28;20045;-76
2022/10/10 11:51:54;;;;;;;3.95;1.42;;;32.20;36.00;;;;;;5043154;28;20036;-76
2022/10/10 11:54:40;;;;;;;3.95;1.60;;;31.30;37.50;;;;;;5030475;28;20044;-76
2022/10/10 11:57:18;;;;;;;6.47;1.73;;;33.30;36.30;;;;;;5028141;28;20498;-76
2022/10/10 11:59:50;;;;;;;2.78;1.63;;;33.80;34.10;;;;;;5042362;28;20043;-76
2022/10/10 12:02:39;;;;;;;3.25;1.42;;;34.30;34.80;;;;;;5030724;28;20065;-76
2022/10/10 12:05:05;;;;;;;2.75;1.55;;;34.50;33.40;;;;;;5028239;28;20022;-76
2022/10/10 12:07:39;;;;;;;2.13;1.40;;;33.80;33.70;;;;;;5028028;28;20088;-76
2022/10/10 12:10:17;;;;;;;2.08;1.42;;;30.50;37.20;;;;;;5040400;28;20032;-76
2022/10/10 12:12:48;;;;;;;2.13;1.50;;;29.80;39.80;;;;;;5040954;28;20475;-76
2022/10/10 12:15:27;;;;;;;2.67;1.60;;;30.80;37.90;;;;;;5047757;28;20090;-76
2022/10/10 12:17:52;;;;;;;2.70;1.90;;;30.70;37.50;;;;;;5046394;28;20043;-77
2022/10/10 12:20:24;;;;;;;2.80;1.60;;;30.80;37.50;;;;;;5040862;28;20120;-76
2022/10/10 12:23:17;;;;;;;2.15;1.75;;;29.00;40.40;;;;;;5044249;28;20027;-77
2022/10/10 12:25:45;;;;;;;3.80;1.80;;;27.80;41.40;;;;;;5045686;28;20387;-76
2022/10/10 12:28:13;;;;;;;2.88;1.67;;;25.90;45.80;;;;;;5047759;28;20078;-76
2022/10/10 12:30:51;;;;;;;2.25;1.52;;;28.90;42.00;;;;;;5047670;28;20033;-76
2022/10/10 12:33:31;;;;;;;4.70;1.55;;;30.50;39.70;;;;;;5046118;28;20122;-76
2022/10/10 12:36:19;;;;;;;1.45;1.35;;;28.90;40.70;;;;;;5046492;28;20575;-76
2022/10/10 12:39:10;;;;;;;5.13;1.90;;;26.90;43.60;;;;;;5050216;28;20396;-77
2022/10/10 12:41:48;;;;;;;2.75;1.65;;;25.80;46.40;;;;;;5045076;28;20026;-76
2022/10/10 12:44:13;;;;;;;2.97;1.77;;;23.90;49.30;;;;;;5037526;28;20041;-76
2022/10/10 12:46:40;;;;;;;3.72;1.95;;;24.50;49.90;;;;;;5044279;28;20108;-76
2022/10/10 12:49:17;;;;;;;2.42;1.50;;;25.00;47.40;;;;;;5037668;28;21315;-77
2022/10/10 12:51:44;;;;;;;3.10;1.60;;;24.60;49.00;;;;;;5044952;28;20032;-76
2022/10/10 12:54:28;;;;;;;3.13;1.50;;;28.10;44.90;;;;;;5043554;28;20083;-77
2022/10/10 12:57:06;;;;;;;2.65;1.67;;;28.60;42.50;;;;;;5037878;28;20037;-77
2022/10/10 12:59:35;;;;;;;2.92;2.03;;;27.70;43.90;;;;;;5040751;28;20095;-77
2022/10/10 13:02:09;;;;;;;3.72;1.40;;;29.90;41.20;;;;;;5031358;28;20032;-77
2022/10/10 13:04:34;;;;;;;3.83;1.50;;;31.60;38.40;;;;;;5048522;28;20028;-76
2022/10/10 13:07:02;;;;;;;3.38;1.40;;;32.40;37.70;;;;;;5046859;28;20033;-77
2022/10/10 13:09:32;;;;;;;2.63;1.85;;;34.20;35.40;;;;;;5041921;28;20051;-75
2022/10/10 13:11:59;;;;;;;2.00;1.55;;;34.00;34.90;;;;;;5050843;28;20491;-76